.
WxDataArchive / Data Records for 2014-04-06
2014-04-05 April 2014 2014-04-07

Data Records for Sunday, 06 April 2014

Time	Temp	Chill	HIndex	Humid	Dewpt	 Wind 	HiWind	WindDir	Rain 	Barom
-----	----	-----	------	-----	-----	------	------	-------	-----	-----
00:00	32.2	32.2	32.2	67	22.5	0	0	---	0.00	30.205 
00:05	31.9	31.9	31.9	67	22.2	0	0	---	0.00	30.205 
00:10	31.8	31.8	31.8	67	22.1	0	0	---	0.00	30.205 
00:15	31.5	31.5	31.5	68	22.2	0	0	---	0.00	30.200 
00:20	31.3	31.3	31.3	68	22.0	0	0	---	0.00	30.200 
00:25	31.2	31.2	31.2	69	22.2	0	0	---	0.00	30.200 
00:30	31.0	31.0	31.0	69	22.0	0	0	---	0.00	30.199 
00:35	30.9	30.9	30.9	69	21.9	0	0	---	0.00	30.199 
00:40	30.7	30.7	30.7	69	21.8	0	0	---	0.00	30.199 
00:45	30.6	30.6	30.6	70	22.0	0	0	---	0.00	30.199 
00:50	30.4	30.4	30.4	71	22.1	0	0	---	0.00	30.199 
00:55	30.3	30.3	30.3	71	22.0	0	0	---	0.00	30.199 
01:00	30.1	30.1	30.1	71	21.9	0	0	---	0.00	30.197 
01:05	30.0	30.0	30.0	72	22.1	0	0	---	0.00	30.197 
01:10	29.8	29.8	29.8	72	21.9	0	0	---	0.00	30.197 
01:15	29.7	29.7	29.7	72	21.8	0	0	---	0.00	30.193 
01:20	29.5	29.5	29.5	72	21.6	0	0	---	0.00	30.193 
01:25	29.4	29.4	29.4	73	21.8	0	0	---	0.00	30.193 
01:30	29.4	29.4	29.4	73	21.8	0	0	---	0.00	30.188 
01:35	29.3	29.3	29.3	73	21.7	0	0	---	0.00	30.188 
01:40	29.1	29.1	29.1	74	21.9	0	0	---	0.00	30.188 
01:45	29.0	29.0	29.0	74	21.8	0	0	---	0.00	30.187 
01:50	28.7	28.7	28.7	74	21.5	0	0	---	0.00	30.187 
01:55	28.5	28.5	28.5	75	21.6	0	0	---	0.00	30.187 
02:00	28.4	28.4	28.4	75	21.5	0	0	---	0.00	30.188 
02:05	28.4	28.4	28.4	76	21.8	0	0	---	0.00	30.188 
02:10	28.4	28.4	28.4	76	21.8	0	0	---	0.00	30.188 
02:15	28.4	28.4	28.4	76	21.8	0	0	---	0.00	30.184 
02:20	28.2	28.2	28.2	76	21.6	0	0	---	0.00	30.184 
02:25	28.1	28.1	28.1	76	21.5	0	0	---	0.00	30.184 
02:30	28.1	28.1	28.1	76	21.5	0	0	---	0.00	30.181 
02:35	27.9	27.9	27.9	77	21.6	0	0	---	0.00	30.181 
02:40	27.9	27.9	27.9	77	21.6	0	0	---	0.00	30.181 
02:45	27.8	27.8	27.8	77	21.5	0	0	---	0.00	30.176 
02:50	27.8	27.8	27.8	77	21.5	0	0	---	0.00	30.176 
02:55	27.6	27.6	27.6	77	21.4	0	0	---	0.00	30.176 
03:00	27.5	27.5	27.5	78	21.6	0	0	---	0.00	30.173 
03:05	27.3	27.3	27.3	78	21.4	0	0	---	0.00	30.173 
03:10	27.3	27.3	27.3	78	21.4	0	0	---	0.00	30.173 
03:15	27.3	27.3	27.3	78	21.4	0	0	---	0.00	30.172 
03:20	27.2	27.2	27.2	78	21.3	0	0	---	0.00	30.172 
03:25	27.2	27.2	27.2	78	21.3	0	0	---	0.00	30.172 
03:30	27.2	27.2	27.2	79	21.6	0	0	---	0.00	30.174 
03:35	27.2	27.2	27.2	79	21.6	0	0	---	0.00	30.174 
03:40	27.0	27.0	27.0	79	21.4	0	0	---	0.00	30.174 
03:45	27.0	27.0	27.0	79	21.4	0	0	---	0.00	30.172 
03:50	27.0	27.0	27.0	79	21.4	0	0	---	0.00	30.172 
03:55	26.9	26.9	26.9	80	21.6	0	0	---	0.00	30.172 
04:00	26.7	26.7	26.7	80	21.4	0	0	---	0.00	30.174 
04:05	26.7	26.7	26.7	80	21.4	0	0	---	0.00	30.174 
04:10	26.6	26.6	26.6	80	21.3	0	0	---	0.00	30.174 
04:15	26.4	26.4	26.4	81	21.4	0	0	---	0.00	30.171 
04:20	26.4	26.4	26.4	81	21.4	0	0	---	0.00	30.171 
04:25	26.4	26.4	26.4	82	21.7	0	0	---	0.00	30.171 
04:30	26.4	26.4	26.4	82	21.7	0	0	---	0.00	30.170 
04:35	26.3	26.3	26.3	82	21.6	0	0	---	0.00	30.170 
04:40	26.3	26.3	26.3	82	21.6	0	0	---	0.00	30.170 
04:45	26.3	26.3	26.3	82	21.6	0	1	315	0.00	30.172 
04:50	26.3	26.3	26.3	82	21.6	0	0	---	0.00	30.172 
04:55	26.3	26.3	26.3	82	21.6	0	0	---	0.00	30.172 
05:00	26.3	26.3	26.3	82	21.6	0	0	---	0.00	30.175 
05:05	26.1	26.1	26.1	82	21.4	0	0	---	0.00	30.175 
05:10	26.0	26.0	26.0	82	21.3	0	0	---	0.00	30.175 
05:15	26.0	26.0	26.0	81	21.0	0	0	---	0.00	30.174 
05:20	25.8	25.8	25.8	81	20.8	0	0	---	0.00	30.174 
05:25	25.7	25.7	25.7	81	20.7	0	0	---	0.00	30.174 
05:30	25.6	25.6	25.6	81	20.6	0	0	---	0.00	30.172 
05:35	25.6	25.6	25.6	81	20.6	0	0	---	0.00	30.172 
05:40	25.4	25.4	25.4	81	20.4	0	0	---	0.00	30.172 
05:45	25.4	25.4	25.4	82	20.7	0	0	---	0.00	30.177 
05:50	25.4	25.4	25.4	82	20.7	0	0	---	0.00	30.177 
05:55	25.3	25.3	25.3	82	20.6	0	0	---	0.00	30.177 
06:00	25.3	25.3	25.3	82	20.6	0	0	---	0.00	30.173 
06:05	25.1	25.1	25.1	82	20.4	0	0	---	0.00	30.173 
06:10	25.1	25.1	25.1	82	20.4	0	0	---	0.00	30.173 
06:15	25.1	25.1	25.1	82	20.4	0	0	---	0.00	30.180 
06:20	25.1	25.1	25.1	82	20.4	0	0	---	0.00	30.180 
06:25	25.0	25.0	25.0	82	20.3	0	0	---	0.00	30.180 
06:30	24.8	24.8	24.8	83	20.4	0	0	---	0.00	30.180 
06:35	24.8	24.8	24.8	83	20.4	0	0	---	0.00	30.180 
06:40	24.7	24.7	24.7	83	20.3	0	0	---	0.00	30.180 
06:45	24.7	24.7	24.7	83	20.3	0	0	---	0.00	30.182 
06:50	24.5	24.5	24.5	83	20.1	0	0	---	0.00	30.182 
06:55	24.5	24.5	24.5	84	20.4	0	0	---	0.00	30.182 
07:00	24.4	24.4	24.4	84	20.3	0	0	---	0.00	30.185 
07:05	24.4	24.4	24.4	84	20.3	0	0	---	0.00	30.185 
07:10	24.2	24.2	24.2	84	20.1	0	0	---	0.00	30.185 
07:15	24.2	24.2	24.2	84	20.1	0	0	---	0.00	30.190 
07:20	24.2	24.2	24.2	84	20.1	0	0	---	0.00	30.190 
07:25	24.2	24.2	24.2	84	20.1	0	0	---	0.00	30.190 
07:30	24.1	24.1	24.1	84	20.0	0	0	---	0.00	30.192 
07:35	24.1	24.1	24.1	85	20.3	0	0	---	0.00	30.192 
07:40	24.2	24.2	24.2	85	20.4	0	0	---	0.00	30.192 
07:45	24.4	24.4	24.4	85	20.6	0	0	---	0.00	30.204 
07:50	24.5	24.5	24.5	85	20.6	0	0	---	0.00	30.204 
07:55	25.0	25.0	25.0	86	21.4	0	0	---	0.00	30.204 
08:00	25.4	25.4	25.4	86	21.8	0	0	---	0.00	30.202 
08:05	26.0	26.0	26.0	86	22.4	0	0	---	0.00	30.202 
08:10	26.4	26.4	26.4	86	22.8	0	0	---	0.00	30.202 
08:15	27.0	27.0	27.0	86	23.4	0	0	---	0.00	30.205 
08:20	27.8	27.8	27.8	86	24.2	0	0	---	0.00	30.205 
08:25	28.8	28.8	28.8	86	25.2	0	0	---	0.00	30.205 
08:30	29.8	29.8	29.8	85	25.9	0	0	---	0.00	30.205 
08:35	31.0	31.0	31.0	85	27.0	0	0	---	0.00	30.205 
08:40	31.9	31.9	31.9	84	27.6	0	0	---	0.00	30.205 
08:45	33.1	33.1	33.1	82	28.2	0	0	---	0.00	30.204 
08:50	34.1	34.1	34.1	78	28.0	0	1	315	0.00	30.204 
08:55	35.2	35.2	35.2	71	26.8	0	0	---	0.00	30.204 
09:00	35.9	35.9	35.9	66	25.7	0	2	315	0.00	30.210 
09:05	36.6	36.6	36.6	65	26.0	0	2	315	0.00	30.210 
09:10	36.9	36.9	36.9	61	24.7	1	2	315	0.00	30.210 
09:15	37.5	37.5	37.5	60	24.9	0	2	315	0.00	30.206 
09:20	38.3	38.3	38.3	57	24.4	1	2	315	0.00	30.206 
09:25	39.1	39.1	39.1	54	23.9	0	1	315	0.00	30.206 
09:30	39.6	39.6	39.6	52	23.4	0	2	315	0.00	30.205 
09:35	40.2	40.2	40.2	52	24.0	0	2	315	0.00	30.205 
09:40	40.8	40.8	40.8	52	24.6	0	2	315	0.00	30.205 
09:45	41.2	41.2	41.2	51	24.5	0	2	315	0.00	30.207 
09:50	41.6	41.6	41.6	48	23.4	1	2	0	0.00	30.207 
09:55	41.8	41.8	41.8	50	24.5	1	4	68	0.00	30.207 
10:00	41.9	41.9	41.9	51	25.1	2	3	68	0.00	30.206 
10:05	42.3	42.3	42.3	52	25.9	0	3	68	0.00	30.206 
10:10	43.2	43.2	43.2	51	26.3	1	2	90	0.00	30.206 
10:15	43.9	43.9	43.9	49	26.0	1	4	90	0.00	30.204 
10:20	44.5	44.5	44.5	46	25.0	2	4	90	0.00	30.204 
10:25	45.1	45.1	45.1	45	25.0	1	3	90	0.00	30.204 
10:30	45.8	45.8	45.8	45	25.7	1	2	90	0.00	30.199 
10:35	46.4	46.4	46.4	43	25.1	1	2	90	0.00	30.199 
10:40	46.8	46.8	46.8	44	26.0	1	3	90	0.00	30.199 
10:45	47.3	47.3	47.3	45	27.0	1	3	90	0.00	30.191 
10:50	47.7	47.7	47.7	45	27.4	1	3	90	0.00	30.191 
10:55	48.0	48.0	48.0	44	27.1	1	4	90	0.00	30.191 
11:00	48.3	48.3	48.3	45	28.0	0	3	90	0.00	30.188 
11:05	48.5	48.5	48.5	42	26.5	1	3	90	0.00	30.188 
11:10	48.6	48.6	48.6	43	27.1	1	4	90	0.00	30.188 
11:15	48.6	48.6	48.6	42	26.6	1	4	90	0.00	30.191 
11:20	48.9	48.9	48.9	43	27.4	1	4	90	0.00	30.191 
11:25	48.8	48.8	48.8	43	27.3	1	4	90	0.00	30.191 
11:30	48.9	48.9	48.9	38	24.4	0	2	90	0.00	30.185 
11:35	49.2	49.2	49.2	38	24.7	2	5	90	0.00	30.185 
11:40	49.1	49.1	49.1	38	24.6	2	4	112	0.00	30.185 
11:45	49.4	49.4	49.4	39	25.5	0	2	112	0.00	30.185 
11:50	49.6	49.6	49.6	38	25.0	2	6	112	0.00	30.185 
11:55	49.6	49.6	49.6	43	28.0	1	5	112	0.00	30.185 
12:00	50.1	50.1	50.1	40	26.7	1	4	135	0.00	30.178 
12:05	50.5	50.5	50.5	41	27.7	0	2	112	0.00	30.178 
12:10	50.7	50.7	50.7	39	26.7	1	3	135	0.00	30.178 
12:15	50.8	50.8	50.8	36	24.8	1	4	135	0.00	30.175 
12:20	51.0	51.0	51.0	36	25.0	1	3	112	0.00	30.175 
12:25	50.7	50.7	50.7	38	26.0	1	4	112	0.00	30.175 
12:30	50.7	50.7	50.7	38	26.0	2	6	112	0.00	30.163 
12:35	50.8	50.8	50.8	38	26.1	2	6	112	0.00	30.163 
12:40	50.5	50.5	50.5	36	24.6	2	9	112	0.00	30.163 
12:45	50.4	50.4	50.4	36	24.5	2	5	112	0.00	30.152 
12:50	50.4	50.4	50.4	38	25.8	1	4	90	0.00	30.152 
12:55	50.5	50.5	50.5	38	25.9	1	3	90	0.00	30.152 
13:00	50.7	50.7	50.7	38	26.0	1	3	90	0.00	30.149 
13:05	50.8	50.8	50.8	36	24.8	1	7	90	0.00	30.149 
13:10	50.8	50.8	50.8	39	26.7	1	5	90	0.00	30.149 
13:15	50.5	50.5	50.5	38	25.9	1	5	90	0.00	30.143 
13:20	50.5	50.5	50.5	40	27.1	0	2	112	0.00	30.143 
13:25	51.1	51.1	51.1	40	27.6	1	4	112	0.00	30.143 
13:30	51.6	51.6	51.6	38	26.8	2	9	112	0.00	30.136 
13:35	51.9	51.9	51.9	38	27.1	1	2	68	0.00	30.136 
13:40	52.0	52.0	52.0	39	27.8	1	4	45	0.00	30.136 
13:45	51.9	51.9	51.9	36	25.8	2	4	112	0.00	30.125 
13:50	51.4	51.4	51.4	38	26.7	3	6	90	0.00	30.125 
13:55	51.3	51.3	51.3	39	27.2	1	6	112	0.00	30.125 
14:00	51.4	51.4	51.4	37	26.0	1	4	112	0.00	30.120 
14:05	51.4	51.4	51.4	37	26.0	3	10	112	0.00	30.120 
14:10	51.1	51.1	51.1	38	26.4	1	3	112	0.00	30.120 
14:15	51.1	51.1	51.1	40	27.6	0	3	112	0.00	30.109 
14:20	51.3	51.3	51.3	40	27.8	1	4	112	0.00	30.109 
14:25	51.7	51.7	51.7	40	28.2	1	3	112	0.00	30.109 
14:30	52.5	52.5	52.5	39	28.3	0	2	112	0.00	30.104 
14:35	52.6	52.6	52.6	39	28.4	1	5	90	0.00	30.104 
14:40	52.3	52.3	52.3	39	28.1	2	5	112	0.00	30.104 
14:45	52.6	52.6	52.6	42	30.2	1	5	90	0.00	30.094 
14:50	53.2	53.2	53.2	41	30.1	1	4	112	0.00	30.094 
14:55	53.8	53.8	53.8	40	30.1	1	6	112	0.00	30.094 
15:00	53.8	53.8	53.8	39	29.4	2	5	112	0.00	30.087 
15:05	53.6	53.6	53.6	39	29.3	1	4	112	0.00	30.087 
15:10	53.5	53.5	53.5	39	29.2	1	3	112	0.00	30.087 
15:15	53.1	53.1	53.1	40	29.4	2	5	112	0.00	30.081 
15:20	52.6	52.6	52.6	39	28.4	4	9	90	0.00	30.081 
15:25	52.3	52.3	52.3	38	27.5	2	6	90	0.00	30.081 
15:30	52.3	52.3	52.3	39	28.1	3	7	90	0.00	30.067 
15:35	51.9	51.9	51.9	40	28.3	2	5	90	0.00	30.067 
15:40	51.7	51.7	51.7	40	28.2	2	7	112	0.00	30.067 
15:45	51.7	51.7	51.7	41	28.8	3	9	90	0.00	30.058 
15:50	51.9	51.9	51.9	40	28.3	2	5	90	0.00	30.058 
15:55	52.2	52.2	52.2	41	29.2	3	8	112	0.00	30.058 
16:00	52.5	52.5	52.5	40	28.9	3	5	112	0.00	30.049 
16:05	52.8	52.8	52.8	41	29.8	2	6	112	0.00	30.049 
16:10	53.1	53.1	53.1	40	29.4	3	6	112	0.00	30.049 
16:15	52.9	52.9	52.9	40	29.2	2	6	135	0.00	30.050 
16:20	52.6	52.6	52.6	38	27.7	3	8	112	0.00	30.050 
16:25	52.2	52.2	52.2	39	28.0	3	6	112	0.00	30.050 
16:30	51.9	51.9	51.9	40	28.3	4	7	90	0.00	30.037 
16:35	51.7	51.7	51.7	40	28.2	2	5	90	0.00	30.037 
16:40	51.9	51.9	51.9	41	28.9	1	5	135	0.00	30.037 
16:45	51.9	51.9	51.9	42	29.5	2	5	90	0.00	30.039 
16:50	52.0	52.0	52.0	42	29.6	3	7	112	0.00	30.039 
16:55	52.2	52.2	52.2	42	29.8	4	7	112	0.00	30.039 
17:00	52.3	52.3	52.3	40	28.7	3	9	112	0.00	30.030 
17:05	52.5	52.5	52.5	39	28.3	3	5	112	0.00	30.030 
17:10	52.8	52.8	52.8	40	29.2	1	5	112	0.00	30.030 
17:15	53.1	53.1	53.1	40	29.4	1	5	112	0.00	30.045 
17:20	53.1	53.1	53.1	39	28.8	3	7	112	0.00	30.045 
17:25	52.6	52.6	52.6	41	29.6	3	7	112	0.00	30.045 
17:30	52.8	52.8	52.8	42	30.3	2	4	90	0.00	30.046 
17:35	52.8	52.8	52.8	42	30.3	2	9	90	0.00	30.046 
17:40	52.9	52.9	52.9	41	29.8	4	9	112	0.00	30.046 
17:45	53.2	53.2	53.2	39	28.9	2	5	90	0.00	30.038 
17:50	53.3	53.3	53.3	40	29.6	1	5	135	0.00	30.038 
17:55	53.3	53.3	53.3	39	29.0	1	5	112	0.00	30.038 
18:00	53.2	53.2	53.2	39	28.9	1	4	112	0.00	30.042 
18:05	52.9	52.9	52.9	42	30.4	2	7	90	0.00	30.042 
18:10	52.8	52.8	52.8	40	29.2	1	5	68	0.00	30.042 
18:15	52.8	52.8	52.8	43	30.9	2	7	90	0.00	30.044 
18:20	52.6	52.6	52.6	42	30.2	3	6	90	0.00	30.044 
18:25	52.5	52.5	52.5	43	30.7	2	3	90	0.00	30.044 
18:30	52.5	52.5	52.5	41	29.5	1	4	90	0.00	30.027 
18:35	52.5	52.5	52.5	40	28.9	3	6	90	0.00	30.027 
18:40	52.3	52.3	52.3	41	29.3	4	6	90	0.00	30.027 
18:45	52.3	52.3	52.3	40	28.7	3	8	90	0.00	30.009 
18:50	52.2	52.2	52.2	41	29.2	3	8	90	0.00	30.009 
18:55	52.3	52.3	52.3	42	29.9	2	5	90	0.00	30.009 
19:00	52.3	52.3	52.3	42	29.9	3	6	112	0.00	30.009 
19:05	52.2	52.2	52.2	43	30.4	2	5	112	0.00	30.009 
19:10	52.0	52.0	52.0	43	30.2	2	5	90	0.00	30.009 
19:15	52.0	52.0	52.0	43	30.2	3	7	90	0.00	30.010 
19:20	51.9	51.9	51.9	43	30.1	3	6	90	0.00	30.010 
19:25	51.7	51.7	51.7	43	29.9	2	7	90	0.00	30.010 
19:30	51.6	51.6	51.6	43	29.8	2	5	90	0.00	30.013 
19:35	51.4	51.4	51.4	44	30.2	2	4	90	0.00	30.013 
19:40	51.1	51.1	51.1	45	30.5	1	3	90	0.00	30.013 
19:45	51.0	51.0	51.0	46	31.0	0	2	90	0.00	30.016 
19:50	50.7	50.7	50.7	45	30.1	0	2	90	0.00	30.016 
19:55	50.5	50.5	50.5	44	29.4	1	3	90	0.00	30.016 
20:00	50.5	50.5	50.5	45	30.0	1	3	90	0.00	30.012 
20:05	50.4	50.4	50.4	46	30.4	1	2	90	0.00	30.012 
20:10	50.2	50.2	50.2	47	30.8	1	2	90	0.00	30.012 
20:15	50.1	50.1	50.1	48	31.2	0	2	90	0.00	30.002 
20:20	49.8	49.8	49.8	48	30.9	1	3	90	0.00	30.002 
20:25	49.6	49.6	49.6	50	31.7	0	1	90	0.00	30.002 
20:30	49.4	49.4	49.4	50	31.5	0	2	90	0.00	30.002 
20:35	49.1	49.1	49.1	51	31.8	0	3	90	0.00	30.002 
20:40	48.8	48.8	48.8	52	32.0	0	1	90	0.00	30.002 
20:45	48.6	48.6	48.6	53	32.3	0	2	90	0.00	30.003 
20:50	48.3	48.3	48.3	54	32.4	0	2	90	0.00	30.003 
20:55	48.0	48.0	48.0	55	32.6	1	2	90	0.00	30.003 
21:00	47.7	47.7	47.7	55	32.3	0	2	90	0.00	30.004 
21:05	47.6	47.6	47.6	56	32.7	0	1	90	0.00	30.004 
21:10	47.3	47.3	47.3	56	32.4	0	1	90	0.00	30.004 
21:15	47.0	47.0	47.0	57	32.6	0	1	90	0.00	30.001 
21:20	46.7	46.7	46.7	57	32.3	0	1	90	0.00	30.001 
21:25	46.4	46.4	46.4	58	32.4	0	3	90	0.00	30.001 
21:30	46.4	46.4	46.4	57	32.0	1	3	90	0.00	30.003 
21:35	46.4	46.4	46.4	58	32.4	0	2	90	0.00	30.003 
21:40	46.2	46.2	46.2	58	32.2	0	2	90	0.00	30.003 
21:45	46.1	46.1	46.1	58	32.2	0	2	90	0.00	30.002 
21:50	45.8	45.8	45.8	59	32.3	0	2	90	0.00	30.002 
21:55	45.7	45.7	45.7	59	32.2	0	1	90	0.00	30.002 
22:00	45.4	45.4	45.4	59	31.9	0	1	90	0.00	30.001 
22:05	45.1	45.1	45.1	60	32.1	0	0	---	0.00	30.001 
22:10	44.6	44.6	44.6	61	32.0	0	1	90	0.00	30.001 
22:15	44.5	44.5	44.5	62	32.3	0	1	90	0.00	29.993 
22:20	44.2	44.2	44.2	62	32.0	0	1	90	0.00	29.993 
22:25	44.1	44.1	44.1	62	31.9	0	0	---	0.00	29.993 
22:30	43.8	43.8	43.8	62	31.6	0	0	---	0.00	29.994 
22:35	43.5	43.5	43.5	62	31.4	0	0	---	0.00	29.994 
22:40	43.2	43.2	43.2	63	31.5	0	0	---	0.00	29.994 
22:45	42.9	42.9	42.9	64	31.6	0	0	---	0.00	29.989 
22:50	42.8	42.8	42.8	64	31.5	0	0	---	0.00	29.989 
22:55	42.5	42.5	42.5	64	31.2	0	0	---	0.00	29.989 
23:00	42.3	42.3	42.3	65	31.4	0	0	---	0.00	29.983 
23:05	42.1	42.1	42.1	66	31.6	0	0	---	0.00	29.983 
23:10	41.9	41.9	41.9	67	31.8	0	3	90	0.00	29.983 
23:15	42.1	42.1	42.1	66	31.6	1	4	90	0.00	29.981 
23:20	42.5	42.5	42.5	65	31.6	1	3	90	0.00	29.981 
23:25	42.8	42.8	42.8	64	31.5	0	1	90	0.00	29.981 
23:30	42.9	42.9	42.9	64	31.6	1	2	90	0.00	29.973 
23:35	42.9	42.9	42.9	64	31.6	0	2	90	0.00	29.973 
23:40	42.8	42.8	42.8	64	31.5	0	1	90	0.00	29.973 
23:45	42.6	42.6	42.6	65	31.7	0	1	90	0.00	29.967 
23:50	42.3	42.3	42.3	65	31.4	0	0	---	0.00	29.967 
23:55	41.9	41.9	41.9	66	31.4	0	1	90	0.00	29.967 

CoCoRaHS
IN-AL-39
A2 Web Hosting
Creative Commons License
GoDaddy
search engine by freefind advanced

loaded 2018-11-17 19:23:28 • last modified 2010-11-18 10:43:29
Privacy PolicyDisclaimer
• wx.awcolley.com is powered by PmWiki v.2002016 •
• all content (unless otherwise noted) © 2018 A W Colley